Time;durP1;ratioP1;P1;durP2;ratioP2;P2;SDS_P1;SDS_P2;PMS_P1;PMS_P2;Temp;Humidity;BMP_temperature;BMP_pressure;BME280_temperature;BME280_humidity;BME280_pressure;Samples;Min_cycle;Max_cycle;Signal;HPM_P1;HPM_P2
2024/04/06 00:00:08;;;;;;;2.80;1.40;;;13.60;1.00;;;;;;4991893;28;20191;-68
2024/04/06 00:02:34;;;;;;;2.43;2.00;;;13.60;1.00;;;;;;4992064;28;20169;-67
2024/04/06 00:05:00;;;;;;;3.00;1.50;;;13.60;1.00;;;;;;4991864;28;20514;-67
2024/04/06 00:07:26;;;;;;;2.73;2.10;;;13.60;1.00;;;;;;4991901;28;20171;-67
2024/04/06 00:09:51;;;;;;;3.37;1.80;;;13.60;1.00;;;;;;5009010;28;20451;-68
2024/04/06 00:12:17;;;;;;;2.93;1.87;;;13.60;1.00;;;;;;5012762;28;20456;-68
2024/04/06 00:14:42;;;;;;;2.80;1.60;;;13.60;1.00;;;;;;5013135;28;20616;-70
2024/04/06 00:17:09;;;;;;;2.30;1.53;;;13.50;1.00;;;;;;5012573;28;20288;-68
2024/04/06 00:19:35;;;;;;;2.70;1.70;;;13.40;1.00;;;;;;5011868;28;20179;-68
2024/04/06 00:22:00;;;;;;;2.73;1.37;;;13.30;1.00;;;;;;5006792;28;20426;-68
2024/04/06 00:24:26;;;;;;;2.40;1.30;;;13.20;1.00;;;;;;4991901;28;20260;-69
2024/04/06 00:26:51;;;;;;;3.60;1.70;;;13.20;1.00;;;;;;4992036;28;20643;-68
2024/04/06 00:29:17;;;;;;;2.20;1.30;;;13.10;1.00;;;;;;4991761;28;20172;-68
2024/04/06 00:31:42;;;;;;;2.13;1.40;;;12.90;1.00;;;;;;4991816;28;20182;-68
2024/04/06 00:34:08;;;;;;;3.00;1.40;;;12.80;1.00;;;;;;4994162;28;20181;-68
2024/04/06 00:36:33;;;;;;;3.93;1.87;;;12.70;1.00;;;;;;4995593;28;20212;-67
2024/04/06 00:38:59;;;;;;;2.83;1.63;;;12.70;1.00;;;;;;4995389;28;20322;-68
2024/04/06 00:41:25;;;;;;;2.30;1.40;;;12.60;1.00;;;;;;4995408;28;20176;-68
2024/04/06 00:43:50;;;;;;;2.23;1.40;;;12.50;1.00;;;;;;4995342;28;20184;-68
2024/04/06 00:46:16;;;;;;;5.73;1.80;;;12.50;1.00;;;;;;4995278;28;20470;-67
2024/04/06 00:48:42;;;;;;;2.60;1.00;;;12.40;1.00;;;;;;4997347;28;20188;-70
2024/04/06 00:51:07;;;;;;;2.60;1.23;;;12.40;1.00;;;;;;5014973;28;20177;-69
2024/04/06 00:53:33;;;;;;;3.47;1.70;;;12.40;1.00;;;;;;5015021;28;20676;-69
2024/04/06 00:55:59;;;;;;;3.70;1.80;;;12.20;1.00;;;;;;4996970;28;20203;-68
2024/04/06 00:58:26;;;;;;;3.50;1.50;;;12.20;1.00;;;;;;5014784;28;20222;-68
2024/04/06 01:00:51;;;;;;;3.40;1.37;;;12.20;1.00;;;;;;5018091;28;20783;-68
2024/04/06 01:03:17;;;;;;;2.63;1.50;;;12.10;1.00;;;;;;5020132;28;20403;-68
2024/04/06 01:05:43;;;;;;;2.53;1.20;;;12.10;1.00;;;;;;5001359;28;20599;-68
2024/04/06 01:08:08;;;;;;;2.93;1.50;;;12.10;1.00;;;;;;5015650;28;20502;-68
2024/04/06 01:10:34;;;;;;;3.47;1.57;;;12.10;1.00;;;;;;5015170;28;20286;-69
2024/04/06 01:13:00;;;;;;;3.97;2.10;;;12.10;1.00;;;;;;4997446;28;20274;-69
2024/04/06 01:15:25;;;;;;;5.27;1.53;;;12.00;1.00;;;;;;5015245;28;20611;-69
2024/04/06 01:17:53;;;;;;;2.67;1.50;;;12.00;1.00;;;;;;5007177;28;20463;-70
2024/04/06 01:20:19;;;;;;;2.80;1.57;;;12.00;1.00;;;;;;4995229;28;20251;-68
2024/04/06 01:22:46;;;;;;;3.10;1.10;;;11.90;1.00;;;;;;4994786;28;20471;-69
2024/04/06 01:25:12;;;;;;;4.80;1.60;;;11.80;1.00;;;;;;4994385;28;20432;-69
2024/04/06 01:27:37;;;;;;;3.57;1.40;;;11.60;1.00;;;;;;4994882;28;20480;-68
2024/04/06 01:30:05;;;;;;;2.43;1.47;;;11.70;1.00;;;;;;4998125;28;20199;-69
2024/04/06 01:32:31;;;;;;;2.73;1.50;;;11.60;1.00;;;;;;4994400;28;20177;-69
2024/04/06 01:34:59;;;;;;;5.00;2.37;;;11.50;1.00;;;;;;4976892;28;20866;-68
2024/04/06 01:37:25;;;;;;;3.93;1.70;;;11.50;1.00;;;;;;4994410;28;20211;-68
2024/04/06 01:39:50;;;;;;;2.57;1.80;;;11.50;1.00;;;;;;4994212;28;20982;-69
2024/04/06 01:42:16;;;;;;;2.50;1.20;;;11.40;1.00;;;;;;4996075;28;20415;-68
2024/04/06 01:44:41;;;;;;;6.03;2.53;;;11.30;1.00;;;;;;5022516;28;20203;-69
2024/04/06 01:47:07;;;;;;;2.50;1.63;;;11.30;1.00;;;;;;5031418;28;20172;-68
2024/04/06 01:49:33;;;;;;;2.40;1.30;;;11.30;1.00;;;;;;5009270;28;20187;-70
2024/04/06 01:51:58;;;;;;;3.50;1.40;;;11.20;1.00;;;;;;5018535;28;20180;-68
2024/04/06 01:54:24;;;;;;;3.63;2.33;;;11.20;1.00;;;;;;5013486;28;20476;-68
2024/04/06 01:56:50;;;;;;;4.63;2.60;;;11.30;1.00;;;;;;5012991;28;20219;-68
2024/04/06 01:59:15;;;;;;;2.90;1.63;;;11.30;1.00;;;;;;4995745;28;20655;-70
2024/04/06 02:01:43;;;;;;;2.73;1.60;;;11.30;1.00;;;;;;4996099;28;20418;-69
2024/04/06 02:04:09;;;;;;;2.93;1.30;;;11.20;1.00;;;;;;5013525;28;20175;-68
2024/04/06 02:06:35;;;;;;;4.00;1.60;;;11.20;1.00;;;;;;5013631;28;20442;-69
2024/04/06 02:09:00;;;;;;;2.37;1.43;;;11.20;1.00;;;;;;5013155;28;20187;-70
2024/04/06 02:11:26;;;;;;;2.27;1.70;;;11.20;1.00;;;;;;4997337;28;20183;-68
2024/04/06 02:13:51;;;;;;;2.70;1.50;;;11.30;1.00;;;;;;5013299;28;20192;-68
2024/04/06 02:16:17;;;;;;;3.87;1.60;;;11.30;1.00;;;;;;5013368;28;20705;-68
2024/04/06 02:18:43;;;;;;;4.57;2.20;;;11.30;1.00;;;;;;5013139;28;20175;-67
2024/04/06 02:21:10;;;;;;;3.40;1.83;;;11.20;1.00;;;;;;5013175;28;20176;-68
2024/04/06 02:23:35;;;;;;;3.80;1.57;;;11.20;1.00;;;;;;5013152;28;20418;-67
2024/04/06 02:26:01;;;;;;;2.73;1.60;;;11.20;1.00;;;;;;4998016;28;20443;-67
2024/04/06 02:28:26;;;;;;;4.13;1.77;;;11.20;1.00;;;;;;4993535;28;20184;-67
2024/04/06 02:30:53;;;;;;;2.67;1.57;;;11.30;1.00;;;;;;4993486;28;20548;-67
2024/04/06 02:33:18;;;;;;;3.70;1.70;;;11.30;1.00;;;;;;4993531;28;20632;-68
2024/04/06 02:35:44;;;;;;;3.20;1.50;;;11.40;1.00;;;;;;4993122;28;20517;-70
2024/04/06 02:38:09;;;;;;;3.00;1.27;;;11.40;1.00;;;;;;4995297;28;20556;-67
2024/04/06 02:40:35;;;;;;;7.30;1.60;;;11.50;1.00;;;;;;5011461;28;20175;-69
2024/04/06 02:43:00;;;;;;;3.00;1.63;;;11.70;1.00;;;;;;5013376;28;20237;-67
2024/04/06 02:45:26;;;;;;;3.60;1.80;;;11.80;1.00;;;;;;5012506;28;20578;-67
2024/04/06 02:47:51;;;;;;;3.27;1.53;;;11.90;1.00;;;;;;5012944;28;20264;-68
2024/04/06 02:50:17;;;;;;;3.70;1.60;;;12.10;1.00;;;;;;5012442;28;20180;-68
2024/04/06 02:52:42;;;;;;;3.30;1.93;;;12.30;1.00;;;;;;5012419;28;20192;-68
2024/04/06 02:55:08;;;;;;;2.47;1.37;;;12.40;1.00;;;;;;5001977;28;20216;-67
2024/04/06 02:57:33;;;;;;;2.53;1.40;;;12.40;1.00;;;;;;4992695;28;20211;-68
2024/04/06 02:59:59;;;;;;;2.27;1.23;;;12.50;1.00;;;;;;4993021;28;20205;-68
2024/04/06 03:02:25;;;;;;;2.57;1.47;;;12.60;1.00;;;;;;4993182;28;20583;-67
2024/04/06 03:04:52;;;;;;;3.17;1.40;;;12.70;1.00;;;;;;4992562;28;20573;-68
2024/04/06 03:07:17;;;;;;;2.93;1.43;;;12.70;1.00;;;;;;4992603;28;20197;-68
2024/04/06 03:09:43;;;;;;;4.37;1.63;;;12.70;1.00;;;;;;4992283;28;20437;-68
2024/04/06 03:12:08;;;;;;;2.23;1.30;;;12.60;1.00;;;;;;5008489;28;20252;-68
2024/04/06 03:14:34;;;;;;;3.60;1.40;;;12.50;1.00;;;;;;4994480;28;20683;-67
2024/04/06 03:17:00;;;;;;;4.57;1.50;;;12.50;1.00;;;;;;5012057;28;20222;-68
2024/04/06 03:19:25;;;;;;;2.47;1.30;;;12.40;1.00;;;;;;5012067;28;20265;-69
2024/04/06 03:21:51;;;;;;;3.73;1.80;;;12.40;1.00;;;;;;4994636;28;20310;-69
2024/04/06 03:24:17;;;;;;;4.67;1.60;;;12.40;1.00;;;;;;5012231;28;20237;-68
2024/04/06 03:26:44;;;;;;;2.40;1.80;;;12.40;1.00;;;;;;4979512;28;20542;-70
2024/04/06 03:29:10;;;;;;;2.87;1.47;;;12.40;1.00;;;;;;4992286;28;20419;-67
2024/04/06 03:31:35;;;;;;;3.00;1.73;;;12.50;1.00;;;;;;4992389;28;20477;-68
2024/04/06 03:34:01;;;;;;;2.77;1.10;;;12.50;1.00;;;;;;4992298;28;20511;-68
2024/04/06 03:36:26;;;;;;;2.47;1.27;;;12.50;1.00;;;;;;4992252;28;20200;-68
2024/04/06 03:38:52;;;;;;;2.50;1.87;;;12.50;1.00;;;;;;4976454;28;20188;-68
2024/04/06 03:41:18;;;;;;;2.30;1.73;;;12.40;1.00;;;;;;4994214;28;20230;-68
2024/04/06 03:43:43;;;;;;;2.80;1.60;;;12.40;1.00;;;;;;5012097;28;20492;-68
2024/04/06 03:46:09;;;;;;;4.23;2.43;;;12.30;1.00;;;;;;5034732;23;20334;-67
2024/04/06 03:48:34;;;;;;;3.40;2.20;;;12.30;1.00;;;;;;5012162;28;20299;-67
2024/04/06 03:51:00;;;;;;;2.87;1.83;;;12.30;1.00;;;;;;5012172;28;20240;-67
2024/04/06 03:53:30;;;;;;;2.90;1.67;;;12.30;1.00;;;;;;5012162;28;20178;-66
2024/04/06 03:55:56;;;;;;;3.20;1.20;;;12.20;1.00;;;;;;4992458;28;20201;-66
2024/04/06 03:58:21;;;;;;;3.03;1.70;;;12.10;1.00;;;;;;4992424;28;20463;-67
2024/04/06 04:00:47;;;;;;;5.20;2.20;;;12.10;1.00;;;;;;4992295;28;20174;-66
2024/04/06 04:03:12;;;;;;;2.30;1.60;;;12.00;1.00;;;;;;4992556;28;20255;-66
2024/04/06 04:05:38;;;;;;;4.33;1.90;;;11.90;1.00;;;;;;4992549;28;20283;-66
2024/04/06 04:08:04;;;;;;;6.40;1.97;;;11.90;1.00;;;;;;4994149;28;20267;-66
2024/04/06 04:10:31;;;;;;;2.80;1.80;;;11.80;1.00;;;;;;4996345;28;20211;-66
2024/04/06 04:12:57;;;;;;;2.83;1.40;;;11.80;1.00;;;;;;4996315;28;20420;-66
2024/04/06 04:15:23;;;;;;;3.50;1.73;;;11.80;1.00;;;;;;4996112;28;20482;-66
2024/04/06 04:17:49;;;;;;;3.43;1.50;;;11.70;1.00;;;;;;4996483;28;20467;-66
2024/04/06 04:20:14;;;;;;;2.47;1.30;;;11.60;1.00;;;;;;4996131;28;20259;-66
2024/04/06 04:22:40;;;;;;;3.10;1.50;;;11.60;1.00;;;;;;4996003;28;20640;-66
2024/04/06 04:25:05;;;;;;;2.67;1.50;;;11.50;1.00;;;;;;4995891;28;20209;-66
2024/04/06 04:27:32;;;;;;;2.67;1.50;;;11.50;1.00;;;;;;4995810;28;20185;-66
2024/04/06 04:29:58;;;;;;;2.83;1.30;;;11.40;1.00;;;;;;4995813;28;20183;-66
2024/04/06 04:32:23;;;;;;;3.20;2.00;;;11.40;1.00;;;;;;4996174;28;20416;-66
2024/04/06 04:34:49;;;;;;;1.80;1.30;;;11.30;1.00;;;;;;5006678;28;20187;-66
2024/04/06 04:37:15;;;;;;;4.63;2.10;;;11.30;1.00;;;;;;5015481;28;20215;-67
2024/04/06 04:39:40;;;;;;;3.10;1.63;;;11.20;1.00;;;;;;5015454;28;20642;-67
2024/04/06 04:42:06;;;;;;;2.93;1.73;;;11.20;1.00;;;;;;5015725;28;20417;-67
2024/04/06 04:44:32;;;;;;;2.73;1.53;;;11.10;1.00;;;;;;5015853;28;20535;-66
2024/04/06 04:46:57;;;;;;;3.30;1.43;;;11.10;1.00;;;;;;5012932;28;20460;-66
2024/04/06 04:49:25;;;;;;;3.90;1.57;;;11.10;1.00;;;;;;4995578;28;20234;-67
2024/04/06 04:51:50;;;;;;;2.33;1.30;;;11.10;1.00;;;;;;4995523;28;20256;-66
2024/04/06 04:54:16;;;;;;;3.80;1.60;;;11.10;1.00;;;;;;4995492;28;20447;-67
2024/04/06 04:56:41;;;;;;;2.90;1.67;;;11.10;1.00;;;;;;4995785;28;20208;-66
2024/04/06 04:59:07;;;;;;;3.20;1.50;;;11.10;1.00;;;;;;4995613;28;20260;-67
2024/04/06 05:01:33;;;;;;;2.97;1.93;;;11.10;1.00;;;;;;5004318;28;20183;-67
2024/04/06 05:03:58;;;;;;;4.10;1.80;;;11.10;1.00;;;;;;5015039;28;20551;-67
2024/04/06 05:06:24;;;;;;;6.77;2.97;;;11.00;1.00;;;;;;5015109;28;20495;-67
2024/04/06 05:08:49;;;;;;;6.70;1.60;;;11.10;1.00;;;;;;5015145;28;20210;-67
2024/04/06 05:11:15;;;;;;;5.07;1.37;;;11.00;1.00;;;;;;5014910;28;20176;-67
2024/04/06 05:13:41;;;;;;;2.93;1.70;;;11.10;1.00;;;;;;5015024;28;20180;-67
2024/04/06 05:16:06;;;;;;;3.47;1.73;;;11.10;1.10;;;;;;5002666;28;20196;-67
2024/04/06 05:18:32;;;;;;;5.00;2.00;;;11.20;1.00;;;;;;5014102;28;20214;-67
2024/04/06 05:21:01;;;;;;;3.30;1.70;;;11.30;1.00;;;;;;5014417;28;20549;-66
2024/04/06 05:23:27;;;;;;;3.50;1.50;;;11.40;1.00;;;;;;5014797;28;20176;-66
2024/04/06 05:25:53;;;;;;;2.77;1.50;;;11.50;1.00;;;;;;5014936;28;20556;-66
2024/04/06 05:28:23;;;;;;;3.10;1.27;;;11.50;1.00;;;;;;5014524;28;20465;-66
2024/04/06 05:30:49;;;;;;;6.47;2.20;;;11.50;1.00;;;;;;4998809;28;20470;-66
2024/04/06 05:33:18;;;;;;;3.93;1.70;;;11.60;1.00;;;;;;5012356;28;20489;-67
2024/04/06 05:35:45;;;;;;;4.47;2.13;;;11.70;1.00;;;;;;5014726;28;20438;-66
2024/04/06 05:38:11;;;;;;;2.80;1.70;;;11.90;1.00;;;;;;5014158;28;20454;-67
2024/04/06 05:40:37;;;;;;;2.90;1.50;;;12.30;1.00;;;;;;5014224;28;20457;-67
2024/04/06 05:43:03;;;;;;;4.00;2.00;;;12.90;1.00;;;;;;5013620;28;20192;-66
2024/04/06 05:45:29;;;;;;;3.60;1.97;;;13.60;1.00;;;;;;5012690;28;20535;-67
2024/04/06 05:47:54;;;;;;;2.93;1.67;;;14.60;1.00;;;;;;5014515;28;20988;-67
2024/04/06 05:50:20;;;;;;;4.07;2.23;;;15.60;1.00;;;;;;5013915;28;20704;-67
2024/04/06 05:52:46;;;;;;;5.20;2.03;;;16.50;1.00;;;;;;5014168;28;20236;-67
2024/04/06 05:55:11;;;;;;;2.30;1.60;;;17.60;1.00;;;;;;5007953;28;20224;-67
2024/04/06 05:57:37;;;;;;;2.53;1.97;;;18.40;1.00;;;;;;4994379;28;20452;-67
2024/04/06 06:00:03;;;;;;;3.70;1.97;;;;;;;;;;4994431;28;20184;-67
2024/04/06 06:02:30;;;;;;;3.10;2.10;;;;;;;;;;4994326;28;20679;-67
2024/04/06 06:04:55;;;;;;;3.23;2.33;;;20.50;1.00;;;;;;4994237;28;20507;-67
2024/04/06 06:07:21;;;;;;;4.13;2.30;;;20.90;1.00;;;;;;4994237;28;20506;-67
2024/04/06 06:09:47;;;;;;;3.90;2.50;;;;;;;;;;4995459;28;20218;-67
2024/04/06 06:12:14;;;;;;;3.27;2.43;;;21.50;1.00;;;;;;4994158;28;20191;-67
2024/04/06 06:14:39;;;;;;;3.60;2.33;;;22.00;1.00;;;;;;4994044;28;20420;-67
2024/04/06 06:17:05;;;;;;;3.47;2.57;;;22.70;1.00;;;;;;4993946;28;20471;-67
2024/04/06 06:19:30;;;;;;;3.40;3.10;;;23.50;1.00;;;;;;4993856;28;20177;-67
2024/04/06 06:21:56;;;;;;;3.70;2.97;;;;;;;;;;4997695;28;20184;-67
2024/04/06 06:24:22;;;;;;;6.73;3.17;;;24.40;1.00;;;;;;5013811;28;20188;-67
2024/04/06 06:26:47;;;;;;;3.93;3.60;;;25.20;1.00;;;;;;5013419;28;20438;-67
2024/04/06 06:29:13;;;;;;;4.40;4.00;;;;;;;;;;5013396;28;20220;-68
2024/04/06 06:31:39;;;;;;;3.93;3.60;;;;;;;;;;5012555;28;20215;-68
2024/04/06 06:34:05;;;;;;;5.47;4.10;;;;;;;;;;5029022;28;20411;-67
2024/04/06 06:36:31;;;;;;;4.60;4.20;;;;;;;;;;5010377;28;20438;-68
2024/04/06 06:38:57;;;;;;;5.10;4.60;;;;;;;;;;4993747;28;20424;-67
2024/04/06 06:41:23;;;;;;;6.10;4.90;;;;;;;;;;4994014;28;20860;-67
2024/04/06 06:43:49;;;;;;;7.43;4.77;;;;;;;;;;4993553;28;20475;-67
2024/04/06 06:46:15;;;;;;;5.30;4.47;;;;;;;;;;4993225;28;20886;-66
2024/04/06 06:48:40;;;;;;;4.50;4.20;;;27.00;1.00;;;;;;4992304;28;20506;-66
2024/04/06 06:51:06;;;;;;;10.40;5.20;;;26.60;1.00;;;;;;4999673;28;20855;-66
2024/04/06 06:53:31;;;;;;;4.90;4.40;;;26.50;1.00;;;;;;5011784;28;20184;-67
2024/04/06 06:55:57;;;;;;;4.90;3.93;;;26.60;1.00;;;;;;5017961;28;20222;-66
2024/04/06 06:58:22;;;;;;;6.17;4.67;;;26.90;1.00;;;;;;5012679;28;20215;-66
2024/04/06 07:00:48;;;;;;;17.63;4.37;;;;;;;;;;5011215;28;20665;-66
2024/04/06 07:03:14;;;;;;;5.60;3.90;;;26.30;1.00;;;;;;5013016;28;20187;-66
2024/04/06 07:05:39;;;;;;;5.10;4.60;;;26.50;1.00;;;;;;5012491;28;20841;-67
2024/04/06 07:08:05;;;;;;;4.80;4.03;;;26.50;1.00;;;;;;5012555;28;20191;-66
2024/04/06 07:10:37;;;;;;;5.50;4.03;;;26.10;1.00;;;;;;5012379;28;20180;-67
2024/04/06 07:13:03;;;;;;;4.17;3.50;;;26.20;1.00;;;;;;5012474;28;20419;-67
2024/04/06 07:15:28;;;;;;;4.07;3.67;;;26.10;1.00;;;;;;5011422;28;20779;-66
2024/04/06 07:17:55;;;;;;;3.50;3.20;;;25.60;1.00;;;;;;5023062;28;20577;-66
2024/04/06 07:20:21;;;;;;;4.33;3.93;;;25.80;1.00;;;;;;5012476;28;20514;-67
2024/04/06 07:22:46;;;;;;;4.70;3.60;;;25.90;1.00;;;;;;4993667;28;20264;-66
2024/04/06 07:25:12;;;;;;;4.73;3.20;;;26.30;1.00;;;;;;4994319;28;20205;-72
2024/04/06 07:27:37;;;;;;;3.63;3.33;;;26.50;1.00;;;;;;4993469;28;20689;-66
2024/04/06 07:30:04;;;;;;;4.70;3.63;;;26.00;1.00;;;;;;5006427;28;20192;-66
2024/04/06 07:32:29;;;;;;;4.43;3.83;;;24.30;1.00;;;;;;5012151;28;20192;-66
2024/04/06 07:34:55;;;;;;;3.90;3.50;;;23.20;1.00;;;;;;5011835;28;20438;-66
2024/04/06 07:37:21;;;;;;;5.07;3.33;;;22.20;1.00;;;;;;5010892;28;20215;-67
2024/04/06 07:39:46;;;;;;;3.43;2.50;;;21.60;1.00;;;;;;5011932;28;20180;-67
2024/04/06 07:42:12;;;;;;;3.17;2.73;;;20.80;1.00;;;;;;5011801;28;20878;-66
2024/04/06 07:44:37;;;;;;;3.00;2.57;;;20.40;1.00;;;;;;5011870;28;20237;-66
2024/04/06 07:47:03;;;;;;;5.80;2.93;;;20.30;1.00;;;;;;5012233;28;20199;-66
2024/04/06 07:49:29;;;;;;;3.50;3.20;;;20.40;1.00;;;;;;5011931;28;20175;-66
2024/04/06 07:51:54;;;;;;;10.80;3.70;;;20.00;1.00;;;;;;5012064;28;20188;-67
2024/04/06 07:54:20;;;;;;;4.00;2.67;;;20.10;1.00;;;;;;5012118;28;20673;-66
2024/04/06 07:56:46;;;;;;;3.23;2.93;;;20.60;1.00;;;;;;5011638;28;20258;-67
2024/04/06 07:59:11;;;;;;;4.50;3.43;;;21.10;1.00;;;;;;5011837;28;20269;-67
2024/04/06 08:01:37;;;;;;;3.73;3.03;;;20.70;1.00;;;;;;5012095;28;20535;-66
2024/04/06 08:04:02;;;;;;;4.70;3.27;;;21.10;1.00;;;;;;5012051;28;20537;-66
2024/04/06 08:06:28;;;;;;;5.97;4.10;;;21.70;1.00;;;;;;5011840;28;20199;-67
2024/04/06 08:08:53;;;;;;;5.37;3.90;;;22.70;1.00;;;;;;5011985;28;20176;-66
2024/04/06 08:11:19;;;;;;;3.83;3.43;;;24.10;1.00;;;;;;5011582;28;20168;-66
2024/04/06 08:13:44;;;;;;;5.37;3.73;;;25.60;1.00;;;;;;4995453;28;20200;-66
2024/04/06 08:16:10;;;;;;;5.40;3.37;;;;;;;;;;4991960;28;20579;-67
2024/04/06 08:18:35;;;;;;;4.30;3.77;;;26.70;1.00;;;;;;4991950;28;20208;-67
2024/04/06 08:21:01;;;;;;;5.20;4.20;;;27.60;1.00;;;;;;4991799;28;20424;-67
2024/04/06 08:23:27;;;;;;;5.40;3.97;;;28.30;1.00;;;;;;4991950;28;20185;-67
2024/04/06 08:25:54;;;;;;;5.70;3.60;;;28.20;1.00;;;;;;4992073;28;20692;-67
2024/04/06 08:28:20;;;;;;;4.80;4.27;;;28.70;1.00;;;;;;4991937;28;20571;-66
2024/04/06 08:30:45;;;;;;;3.60;3.30;;;28.80;1.00;;;;;;4991782;28;20424;-66
2024/04/06 08:33:11;;;;;;;5.07;4.07;;;29.40;1.00;;;;;;4991650;28;21022;-66
2024/04/06 08:35:37;;;;;;;6.13;3.57;;;29.50;1.00;;;;;;4995541;28;20204;-67
2024/04/06 08:38:07;;;;;;;4.57;3.80;;;30.40;1.00;;;;;;4992974;28;20672;-67
2024/04/06 08:40:39;;;;;;;4.23;3.83;;;31.10;1.00;;;;;;4991713;28;20431;-66
2024/04/06 08:43:11;;;;;;;4.20;3.83;;;30.80;1.00;;;;;;4992027;28;20447;-67
2024/04/06 08:45:38;;;;;;;3.50;3.20;;;30.80;1.00;;;;;;4992215;28;20480;-68
2024/04/06 08:48:04;;;;;;;4.53;3.77;;;30.60;1.00;;;;;;4991964;28;20419;-67
2024/04/06 08:50:31;;;;;;;3.13;2.93;;;29.90;1.00;;;;;;4999455;28;20775;-66
2024/04/06 08:52:56;;;;;;;3.53;3.23;;;28.20;1.00;;;;;;5011547;28;20426;-66
2024/04/06 08:55:22;;;;;;;5.80;3.83;;;27.80;1.00;;;;;;5014141;28;20430;-67
2024/04/06 08:57:48;;;;;;;4.77;3.73;;;26.10;1.00;;;;;;5015213;28;20203;-66
2024/04/06 09:00:16;;;;;;;3.37;3.10;;;25.00;1.00;;;;;;5015107;28;20266;-66
2024/04/06 09:02:42;;;;;;;7.13;2.70;;;24.20;1.00;;;;;;5015675;28;20411;-67
2024/04/06 09:05:08;;;;;;;3.30;3.00;;;23.80;1.00;;;;;;5010938;28;20968;-68
2024/04/06 09:07:34;;;;;;;3.30;2.63;;;23.30;1.00;;;;;;5002267;28;20507;-66
2024/04/06 09:10:00;;;;;;;5.37;2.97;;;22.90;1.00;;;;;;5014827;28;20182;-66
2024/04/06 09:12:25;;;;;;;5.40;2.97;;;22.70;1.00;;;;;;5014929;28;20422;-66
2024/04/06 09:14:51;;;;;;;4.23;3.83;;;22.50;1.00;;;;;;5030149;28;20547;-67
2024/04/06 09:17:18;;;;;;;2.73;2.27;;;22.20;1.00;;;;;;5015053;28;20615;-67
2024/04/06 09:19:44;;;;;;;3.17;2.70;;;22.20;1.00;;;;;;5014262;28;20419;-66
2024/04/06 09:22:10;;;;;;;3.30;3.00;;;22.30;1.00;;;;;;5014736;28;20419;-66
2024/04/06 09:24:38;;;;;;;2.50;2.30;;;22.30;1.00;;;;;;5014670;28;20173;-67
2024/04/06 09:27:12;;;;;;;3.20;2.60;;;22.50;1.00;;;;;;5014942;28;20415;-67
2024/04/06 09:29:39;;;;;;;5.10;3.23;;;22.50;1.00;;;;;;5014542;28;20419;-67
2024/04/06 09:32:10;;;;;;;4.03;2.80;;;22.70;1.00;;;;;;5014280;28;20504;-67
2024/04/06 09:34:42;;;;;;;3.27;2.97;;;23.00;1.00;;;;;;5014739;28;20450;-67
2024/04/06 09:37:10;;;;;;;2.57;2.37;;;22.90;1.00;;;;;;5014581;28;20450;-67
2024/04/06 09:39:38;;;;;;;2.87;2.50;;;23.10;1.00;;;;;;5014412;28;20771;-67
2024/04/06 09:42:06;;;;;;;7.70;3.37;;;23.20;1.00;;;;;;5014350;28;20465;-67
2024/04/06 09:44:32;;;;;;;3.27;2.93;;;23.30;1.00;;;;;;5014209;28;20423;-67
2024/04/06 09:46:58;;;;;;;3.70;3.23;;;23.40;1.00;;;;;;5014264;28;20473;-67
2024/04/06 09:49:24;;;;;;;4.40;3.57;;;23.50;1.00;;;;;;5013974;28;20419;-67
2024/04/06 09:51:53;;;;;;;3.30;3.00;;;23.60;1.00;;;;;;5014313;28;20266;-67
2024/04/06 09:54:20;;;;;;;3.30;3.00;;;23.80;1.00;;;;;;5014516;28;20411;-67
2024/04/06 09:56:47;;;;;;;3.90;3.50;;;24.00;1.00;;;;;;5029204;28;20467;-66
2024/04/06 09:59:20;;;;;;;5.50;3.20;;;24.00;1.00;;;;;;5013859;28;20439;-67
2024/04/06 10:01:46;;;;;;;6.83;3.30;;;23.90;1.00;;;;;;5014262;28;20411;-66
2024/04/06 10:04:32;;;;;;;3.60;3.30;;;24.00;1.00;;;;;;5014517;28;20415;-67
2024/04/06 10:07:01;;;;;;;3.53;3.23;;;24.00;1.00;;;;;;5013384;28;20203;-67
2024/04/06 10:09:30;;;;;;;4.53;3.50;;;24.00;1.00;;;;;;5013483;28;20753;-67
2024/04/06 10:12:02;;;;;;;3.67;3.27;;;24.00;1.00;;;;;;5013484;28;20461;-66
2024/04/06 10:14:29;;;;;;;3.93;3.20;;;23.90;1.00;;;;;;5013870;28;20433;-67
2024/04/06 10:17:10;;;;;;;3.80;3.50;;;24.00;1.00;;;;;;5013722;28;20474;-67
2024/04/06 10:19:38;;;;;;;3.37;3.07;;;24.10;1.00;;;;;;5012483;28;20501;-65
2024/04/06 10:22:05;;;;;;;3.53;3.23;;;24.10;1.00;;;;;;4994818;28;20470;-67
2024/04/06 10:24:33;;;;;;;3.50;3.20;;;24.30;1.00;;;;;;5008474;28;20952;-68
2024/04/06 10:26:59;;;;;;;3.57;2.80;;;24.50;1.00;;;;;;5011568;28;20461;-67
2024/04/06 10:29:26;;;;;;;3.80;3.50;;;24.60;1.00;;;;;;5014235;28;20426;-65
2024/04/06 10:31:52;;;;;;;5.43;3.23;;;24.80;1.00;;;;;;5011762;28;20551;-67
2024/04/06 10:34:18;;;;;;;4.87;3.27;;;25.00;1.00;;;;;;5013221;28;20458;-66
2024/04/06 10:36:44;;;;;;;3.37;3.00;;;25.00;1.00;;;;;;5017742;28;20608;-66
2024/04/06 10:39:11;;;;;;;3.33;3.13;;;25.20;1.00;;;;;;5012938;28;20567;-67
2024/04/06 10:41:39;;;;;;;2.87;2.60;;;25.30;1.00;;;;;;5013199;28;20434;-66
2024/04/06 10:44:05;;;;;;;3.33;3.13;;;25.40;1.00;;;;;;5013681;28;20434;-67
2024/04/06 10:46:31;;;;;;;3.50;3.20;;;25.60;1.00;;;;;;5013835;28;20549;-66
2024/04/06 10:48:57;;;;;;;3.20;2.90;;;25.80;1.00;;;;;;5013534;28;20446;-66
2024/04/06 10:51:22;;;;;;;3.17;2.97;;;25.90;1.00;;;;;;5000447;28;20184;-66
2024/04/06 10:53:49;;;;;;;3.70;3.40;;;25.90;1.00;;;;;;4993700;28;20699;-67
2024/04/06 10:56:14;;;;;;;3.10;2.90;;;25.90;1.00;;;;;;4993825;28;20208;-72
2024/04/06 10:58:40;;;;;;;3.17;2.97;;;26.00;1.00;;;;;;4994323;28;20498;-67
2024/04/06 11:01:13;;;;;;;3.70;3.40;;;25.90;1.00;;;;;;4993231;28;20189;-67
2024/04/06 11:03:39;;;;;;;3.13;2.93;;;25.80;1.00;;;;;;4993345;28;20208;-67
2024/04/06 11:06:06;;;;;;;3.27;3.07;;;25.80;1.00;;;;;;4993289;28;20448;-67
2024/04/06 11:08:32;;;;;;;3.27;3.07;;;25.80;1.00;;;;;;5009102;28;20434;-68
2024/04/06 11:10:57;;;;;;;3.30;3.10;;;26.00;1.00;;;;;;5012908;28;20946;-67
2024/04/06 11:13:24;;;;;;;3.53;3.23;;;26.00;1.00;;;;;;5012933;28;20219;-68
2024/04/06 11:15:50;;;;;;;2.80;2.60;;;26.10;1.00;;;;;;5012768;28;20200;-67
2024/04/06 11:18:15;;;;;;;3.50;3.30;;;26.30;1.00;;;;;;5012298;28;20463;-65
2024/04/06 11:20:41;;;;;;;3.20;3.00;;;26.40;1.00;;;;;;5012561;28;20418;-65
2024/04/06 11:23:26;;;;;;;3.07;2.87;;;26.70;1.00;;;;;;5011043;28;20180;-66
2024/04/06 11:25:51;;;;;;;3.03;2.83;;;26.70;1.00;;;;;;5012572;28;20443;-66
2024/04/06 11:28:17;;;;;;;2.97;2.77;;;26.90;1.00;;;;;;5012397;28;20422;-67
2024/04/06 11:30:42;;;;;;;3.40;3.20;;;26.90;1.00;;;;;;5012735;28;20195;-67
2024/04/06 11:33:08;;;;;;;2.90;2.70;;;27.00;1.00;;;;;;5011909;28;20189;-67
2024/04/06 11:35:34;;;;;;;3.33;3.13;;;27.10;1.00;;;;;;5012643;28;20698;-67
2024/04/06 11:38:00;;;;;;;2.87;2.67;;;27.10;1.00;;;;;;5012628;28;20215;-67
2024/04/06 11:40:25;;;;;;;3.43;2.70;;;27.20;1.00;;;;;;5012337;28;20803;-67
2024/04/06 11:42:51;;;;;;;3.30;3.10;;;27.30;1.00;;;;;;5012283;28;20539;-68
2024/04/06 11:45:16;;;;;;;4.70;3.33;;;27.40;1.00;;;;;;5012072;28;20271;-68
2024/04/06 11:47:42;;;;;;;3.30;3.03;;;27.30;1.00;;;;;;5003499;28;20197;-67
2024/04/06 11:50:08;;;;;;;3.90;3.07;;;27.30;1.00;;;;;;4992747;28;20291;-68
2024/04/06 11:52:33;;;;;;;3.37;3.13;;;27.20;1.00;;;;;;4993093;28;20524;-68
2024/04/06 11:54:59;;;;;;;2.93;2.73;;;27.30;1.00;;;;;;4992347;28;20667;-67
2024/04/06 11:57:25;;;;;;;3.30;3.10;;;27.40;1.00;;;;;;4992778;28;20211;-67
2024/04/06 11:59:50;;;;;;;3.70;3.40;;;27.40;1.00;;;;;;4993387;28;20185;-67
2024/04/06 12:02:16;;;;;;;3.30;3.10;;;27.50;1.00;;;;;;5006547;28;20188;-68
2024/04/06 12:04:41;;;;;;;3.40;3.10;;;27.50;1.00;;;;;;5012386;28;20184;-67
2024/04/06 12:07:07;;;;;;;3.17;2.93;;;27.70;1.00;;;;;;5012090;28;20258;-67
2024/04/06 12:09:33;;;;;;;3.37;3.17;;;27.90;1.00;;;;;;4995234;28;20684;-68
2024/04/06 12:11:58;;;;;;;3.17;2.93;;;28.00;1.00;;;;;;4990859;28;20428;-67
2024/04/06 12:14:24;;;;;;;3.60;3.30;;;28.10;1.00;;;;;;4992257;28;20280;-68
2024/04/06 12:16:50;;;;;;;3.37;3.07;;;28.30;1.00;;;;;;4991909;28;20227;-68
2024/04/06 12:19:16;;;;;;;3.50;3.20;;;28.40;1.00;;;;;;4992424;28;20423;-66
2024/04/06 12:21:42;;;;;;;3.33;3.03;;;28.50;1.00;;;;;;4993392;28;20176;-67
2024/04/06 12:24:08;;;;;;;3.60;3.30;;;28.40;1.00;;;;;;4993596;28;20427;-66
2024/04/06 12:26:33;;;;;;;3.20;3.00;;;28.70;1.00;;;;;;4993861;28;20246;-66
2024/04/06 12:28:59;;;;;;;3.87;3.57;;;28.70;1.00;;;;;;4994057;28;20195;-67
2024/04/06 12:31:26;;;;;;;3.27;3.07;;;28.80;1.00;;;;;;4997271;28;20691;-68
2024/04/06 12:33:52;;;;;;;2.97;2.77;;;28.90;1.00;;;;;;4997286;28;20194;-67
2024/04/06 12:36:18;;;;;;;3.80;3.50;;;28.90;1.00;;;;;;4997130;28;20506;-67
2024/04/06 12:38:43;;;;;;;4.90;3.13;;;28.80;1.00;;;;;;4997227;28;20529;-67
2024/04/06 12:41:09;;;;;;;3.23;3.03;;;28.60;1.00;;;;;;4996870;28;20183;-67
2024/04/06 12:43:35;;;;;;;3.30;3.00;;;28.60;1.00;;;;;;4996759;28;20181;-67
2024/04/06 12:46:01;;;;;;;2.97;2.77;;;28.70;1.00;;;;;;4996988;28;20290;-67
2024/04/06 12:48:27;;;;;;;3.30;3.10;;;28.60;1.00;;;;;;4996933;28;20204;-67
2024/04/06 12:50:53;;;;;;;3.60;3.40;;;28.80;1.00;;;;;;4996878;28;20455;-67
2024/04/06 12:53:18;;;;;;;3.30;3.00;;;28.80;1.00;;;;;;4996928;28;20893;-67